Time;durP1;ratioP1;P1;durP2;ratioP2;P2;SDS_P1;SDS_P2;PMS_P1;PMS_P2;Temp;Humidity;BMP_temperature;BMP_pressure;BME280_temperature;BME280_humidity;BME280_pressure;Samples;Min_cycle;Max_cycle;Signal;HPM_P1;HPM_P2
2021/08/13 00:00:38;;;;;;;8.20;6.83;;;22.60;99.90;;;;;;6160830;23;20155;-65
2021/08/13 00:03:03;;;;;;;10.20;7.63;;;22.60;99.90;;;;;;6187043;23;20620;-64
2021/08/13 00:05:29;;;;;;;9.70;6.53;;;22.60;99.90;;;;;;6160750;23;20505;-63
2021/08/13 00:07:54;;;;;;;8.73;7.43;;;22.60;99.90;;;;;;6186830;23;20183;-62
2021/08/13 00:10:20;;;;;;;8.57;7.47;;;22.60;99.90;;;;;;6160669;23;20158;-64
2021/08/13 00:12:46;;;;;;;10.27;7.27;;;22.60;99.90;;;;;;6186606;23;20198;-65
2021/08/13 00:15:12;;;;;;;8.47;6.97;;;22.60;99.90;;;;;;6186875;23;20154;-63
2021/08/13 00:17:37;;;;;;;8.27;6.70;;;22.60;99.90;;;;;;6160534;23;20178;-64
2021/08/13 00:20:04;;;;;;;7.00;6.30;;;22.60;99.90;;;;;;6186934;23;20221;-64
2021/08/13 00:22:30;;;;;;;8.50;7.03;;;22.60;99.90;;;;;;6186652;23;20167;-62
2021/08/13 00:24:56;;;;;;;9.27;7.97;;;22.50;99.90;;;;;;6186921;23;20367;-62
2021/08/13 00:27:21;;;;;;;8.17;7.00;;;22.50;99.90;;;;;;6186746;23;20177;-62
2021/08/13 00:29:47;;;;;;;10.23;7.93;;;22.40;99.90;;;;;;6186601;23;20237;-64
2021/08/13 00:32:13;;;;;;;14.97;7.90;;;22.40;99.90;;;;;;6186349;23;20194;-65
2021/08/13 00:34:39;;;;;;;9.33;8.00;;;22.30;99.90;;;;;;6187239;23;20483;-62
2021/08/13 00:37:05;;;;;;;10.20;7.70;;;22.30;99.90;;;;;;6186295;23;20435;-63
2021/08/13 00:39:30;;;;;;;9.87;7.33;;;22.20;99.90;;;;;;6187231;23;20196;-65
2021/08/13 00:41:57;;;;;;;8.97;8.03;;;22.20;99.90;;;;;;6160156;23;20527;-65
2021/08/13 00:44:22;;;;;;;8.90;7.60;;;22.20;99.90;;;;;;6160485;23;20612;-64
2021/08/13 00:46:48;;;;;;;11.30;7.67;;;22.10;99.90;;;;;;6160216;23;20467;-62
2021/08/13 00:49:13;;;;;;;9.30;6.80;;;22.10;99.90;;;;;;6187144;23;20163;-62
2021/08/13 00:51:39;;;;;;;8.87;7.60;;;22.10;99.90;;;;;;6186238;23;20628;-64
2021/08/13 00:54:05;;;;;;;11.03;7.57;;;22.00;99.90;;;;;;6186996;23;20163;-62
2021/08/13 00:56:31;;;;;;;10.30;7.63;;;22.00;99.90;;;;;;6186476;23;20170;-62
2021/08/13 00:58:57;;;;;;;8.77;7.20;;;22.00;99.90;;;;;;6160343;23;20940;-62
2021/08/13 01:01:22;;;;;;;8.20;7.40;;;22.00;99.90;;;;;;6186607;23;20371;-62
2021/08/13 01:03:48;;;;;;;11.50;7.87;;;22.00;99.90;;;;;;6186978;23;20640;-63
2021/08/13 01:06:15;;;;;;;8.87;6.83;;;22.00;99.90;;;;;;6186366;23;20578;-64
2021/08/13 01:08:41;;;;;;;8.53;7.57;;;22.00;99.90;;;;;;6184989;23;20464;-64
2021/08/13 01:11:19;;;;;;;10.97;7.27;;;22.00;99.90;;;;;;6186304;23;20379;-64
2021/08/13 01:14:09;;;;;;;12.07;7.97;;;22.00;99.90;;;;;;6186542;23;20457;-62
2021/08/13 01:16:38;;;;;;;9.57;7.37;;;22.00;99.90;;;;;;6186443;23;20393;-62
2021/08/13 01:19:12;;;;;;;10.87;7.60;;;22.00;99.90;;;;;;6186757;23;20384;-62
2021/08/13 01:22:02;;;;;;;8.67;6.70;;;22.00;99.90;;;;;;6186316;23;20720;-65
2021/08/13 01:24:32;;;;;;;11.80;8.10;;;22.00;99.90;;;;;;6187320;23;20483;-64
2021/08/13 01:27:07;;;;;;;9.80;7.40;;;21.90;99.90;;;;;;6186230;23;20392;-64
2021/08/13 01:29:59;;;;;;;9.43;7.93;;;21.90;99.90;;;;;;6187007;23;20387;-64
2021/08/13 01:32:34;;;;;;;10.50;8.30;;;21.80;99.90;;;;;;6186053;23;20431;-62
2021/08/13 01:35:10;;;;;;;9.83;8.03;;;21.80;99.90;;;;;;6186224;23;20368;-62
2021/08/13 01:37:38;;;;;;;9.20;7.57;;;21.80;99.90;;;;;;6185927;23;20424;-62
2021/08/13 01:40:06;;;;;;;9.33;8.30;;;21.70;99.90;;;;;;6186232;23;20372;-62
2021/08/13 01:42:33;;;;;;;10.43;8.80;;;21.60;99.90;;;;;;6186006;23;20475;-64
2021/08/13 01:45:00;;;;;;;9.30;7.93;;;21.60;99.90;;;;;;6186238;23;20425;-63
2021/08/13 01:47:27;;;;;;;8.67;7.87;;;21.50;99.90;;;;;;6184155;23;20903;-65
2021/08/13 01:49:53;;;;;;;10.53;8.30;;;21.50;99.90;;;;;;6184634;23;20448;-62
2021/08/13 01:52:20;;;;;;;8.73;7.90;;;21.50;99.90;;;;;;6159387;23;20443;-65
2021/08/13 01:54:46;;;;;;;10.60;8.53;;;21.40;99.90;;;;;;6186054;23;20404;-62
2021/08/13 01:57:12;;;;;;;8.83;7.60;;;21.40;99.90;;;;;;6186085;23;20937;-62
2021/08/13 01:59:39;;;;;;;9.00;7.43;;;21.40;99.90;;;;;;6186796;23;20758;-64
2021/08/13 02:02:06;;;;;;;8.87;7.97;;;21.40;99.90;;;;;;6186085;23;20478;-62
2021/08/13 02:04:33;;;;;;;9.77;8.37;;;21.30;99.90;;;;;;6186763;23;20384;-64
2021/08/13 02:06:59;;;;;;;8.77;7.90;;;21.30;99.90;;;;;;6186018;23;20392;-65
2021/08/13 02:09:25;;;;;;;8.73;7.83;;;21.30;99.90;;;;;;6186246;23;20468;-64
2021/08/13 02:11:53;;;;;;;9.67;8.07;;;21.30;99.90;;;;;;6185820;23;20439;-64
2021/08/13 02:14:19;;;;;;;8.63;7.73;;;21.20;99.90;;;;;;6186343;23;20740;-62
2021/08/13 02:16:51;;;;;;;8.70;7.90;;;21.20;99.90;;;;;;6185981;23;20915;-62
2021/08/13 02:19:43;;;;;;;10.87;8.80;;;21.20;99.90;;;;;;6185967;23;20383;-62
2021/08/13 02:22:08;;;;;;;8.40;7.60;;;21.20;99.90;;;;;;6184920;23;20446;-65
2021/08/13 02:24:34;;;;;;;9.57;7.47;;;21.10;99.90;;;;;;6186745;23;20372;-63
2021/08/13 02:27:01;;;;;;;8.43;7.43;;;21.10;99.90;;;;;;6186064;23;20177;-64
2021/08/13 02:29:27;;;;;;;9.63;8.60;;;21.10;99.90;;;;;;6186644;23;20580;-65
2021/08/13 02:31:53;;;;;;;8.90;7.97;;;21.10;99.90;;;;;;6159571;23;20474;-64
2021/08/13 02:34:19;;;;;;;14.63;8.53;;;21.10;99.90;;;;;;6185710;23;20550;-64
2021/08/13 02:37:36;;;;;;;10.93;7.97;;;21.10;99.90;;;;;;6185645;23;20459;-64
2021/08/13 02:40:12;;;;;;;10.47;8.30;;;21.10;99.90;;;;;;6112041;23;20498;-64
2021/08/13 02:42:49;;;;;;;8.53;7.73;;;21.00;99.90;;;;;;6186119;23;20869;-64
2021/08/13 02:45:17;;;;;;;10.23;8.20;;;21.00;99.90;;;;;;6159566;23;20403;-65
2021/08/13 02:47:44;;;;;;;9.80;8.80;;;20.90;99.90;;;;;;6185786;23;20411;-62
2021/08/13 02:50:11;;;;;;;9.37;8.47;;;20.90;99.90;;;;;;6185832;23;20394;-62
2021/08/13 02:52:45;;;;;;;8.67;7.83;;;20.90;99.90;;;;;;6184183;23;20809;-64
2021/08/13 02:55:14;;;;;;;10.30;8.17;;;20.90;99.90;;;;;;6185857;23;20498;-62
2021/08/13 02:57:41;;;;;;;8.10;7.30;;;20.90;99.90;;;;;;6186097;23;20398;-62
2021/08/13 03:00:08;;;;;;;8.70;7.50;;;20.90;99.90;;;;;;6187648;23;20842;-65
2021/08/13 03:02:36;;;;;;;9.13;7.60;;;20.90;99.90;;;;;;6187668;23;20800;-62
2021/08/13 03:05:03;;;;;;;9.10;7.83;;;20.80;99.90;;;;;;6187651;23;20376;-62
2021/08/13 03:07:28;;;;;;;10.97;8.20;;;20.80;99.90;;;;;;6187528;23;20399;-66
2021/08/13 03:09:55;;;;;;;8.83;7.93;;;20.80;99.90;;;;;;6187572;23;20402;-63
2021/08/13 03:12:22;;;;;;;9.90;8.90;;;20.80;99.90;;;;;;6161017;23;20224;-62
2021/08/13 03:14:49;;;;;;;8.20;7.20;;;20.70;99.90;;;;;;6187248;23;20379;-64
2021/08/13 03:17:15;;;;;;;9.47;7.80;;;20.70;99.90;;;;;;6187370;23;20399;-62
2021/08/13 03:19:41;;;;;;;7.77;7.00;;;20.70;99.90;;;;;;6188253;23;20431;-64
2021/08/13 03:22:07;;;;;;;8.57;7.77;;;20.70;99.90;;;;;;6187347;23;20201;-64
2021/08/13 03:24:33;;;;;;;10.10;8.07;;;20.70;99.90;;;;;;6188208;23;20391;-64
2021/08/13 03:27:01;;;;;;;8.40;7.57;;;20.60;99.90;;;;;;6187356;23;20858;-64
2021/08/13 03:29:27;;;;;;;9.80;7.20;;;20.60;99.90;;;;;;6187952;23;20387;-62
2021/08/13 03:31:59;;;;;;;9.50;7.80;;;20.70;99.90;;;;;;6187176;23;20585;-64
2021/08/13 03:34:25;;;;;;;9.33;7.77;;;20.70;99.90;;;;;;6187429;23;20241;-65
2021/08/13 03:36:50;;;;;;;10.57;8.43;;;20.70;99.90;;;;;;6187203;23;20469;-64
2021/08/13 03:39:16;;;;;;;8.33;7.47;;;20.70;99.90;;;;;;6161160;23;20166;-65
2021/08/13 03:41:42;;;;;;;8.60;7.43;;;20.80;99.90;;;;;;6160816;23;20232;-64
2021/08/13 03:44:08;;;;;;;8.70;7.83;;;20.80;99.90;;;;;;6187751;23;20395;-62
2021/08/13 03:46:33;;;;;;;8.93;8.03;;;20.80;99.90;;;;;;6160889;23;20556;-65
2021/08/13 03:48:59;;;;;;;10.37;8.70;;;20.80;99.90;;;;;;6186094;23;20176;-66
2021/08/13 03:51:25;;;;;;;9.20;8.30;;;20.80;99.90;;;;;;6185771;23;20196;-66
2021/08/13 03:53:50;;;;;;;9.80;7.50;;;20.80;99.90;;;;;;6184505;23;20539;-64
2021/08/13 03:56:16;;;;;;;8.90;8.00;;;20.90;99.90;;;;;;6185119;23;20545;-64
2021/08/13 03:58:42;;;;;;;8.77;7.87;;;20.90;99.90;;;;;;6186548;23;20162;-64
2021/08/13 04:01:08;;;;;;;8.23;7.43;;;20.90;99.90;;;;;;6159636;23;20184;-63
2021/08/13 04:03:34;;;;;;;13.50;11.10;;;20.90;99.90;;;;;;6186241;23;20505;-62
2021/08/13 04:05:59;;;;;;;131.50;91.60;;;21.00;99.90;;;;;;6160347;23;20380;-63
2021/08/13 04:08:25;;;;;;;13.13;8.83;;;21.00;99.90;;;;;;6187075;23;20411;-62
2021/08/13 04:10:51;;;;;;;8.93;8.03;;;21.00;99.90;;;;;;6186649;23;20200;-63
2021/08/13 04:13:16;;;;;;;8.67;7.00;;;21.10;99.90;;;;;;6160461;23;20256;-62
2021/08/13 04:15:42;;;;;;;9.43;7.37;;;21.10;99.90;;;;;;6186744;23;20236;-65
2021/08/13 04:18:08;;;;;;;11.47;8.13;;;21.10;99.90;;;;;;6186990;23;20215;-62
2021/08/13 04:20:33;;;;;;;8.10;7.27;;;21.10;99.90;;;;;;6186772;23;20252;-63
2021/08/13 04:22:59;;;;;;;10.33;8.67;;;21.10;99.90;;;;;;6186766;23;20181;-65
2021/08/13 04:25:24;;;;;;;8.63;7.83;;;21.10;99.90;;;;;;6186906;23;20658;-65
2021/08/13 04:27:50;;;;;;;9.13;7.80;;;21.10;99.90;;;;;;6160187;23;20182;-63
2021/08/13 04:30:16;;;;;;;9.93;8.70;;;21.20;99.90;;;;;;6160333;23;20237;-65
2021/08/13 04:32:41;;;;;;;9.93;7.37;;;21.20;99.90;;;;;;6186565;23;21916;-62
2021/08/13 04:35:08;;;;;;;9.20;8.23;;;21.20;99.90;;;;;;6186561;23;20616;-63
2021/08/13 04:37:34;;;;;;;9.73;8.43;;;21.30;99.90;;;;;;6186593;23;20198;-62
2021/08/13 04:40:00;;;;;;;11.03;7.70;;;21.30;99.90;;;;;;6186648;23;20387;-62
2021/08/13 04:42:25;;;;;;;9.80;7.97;;;21.30;99.90;;;;;;6186460;23;20482;-65
2021/08/13 04:44:51;;;;;;;10.30;7.83;;;21.30;99.90;;;;;;6186690;23;20232;-65
2021/08/13 04:47:16;;;;;;;11.90;9.10;;;21.40;99.90;;;;;;6185943;23;20182;-65
2021/08/13 04:49:42;;;;;;;11.90;10.27;;;21.40;99.90;;;;;;6187233;23;20161;-65
2021/08/13 04:52:08;;;;;;;14.33;9.50;;;21.40;99.90;;;;;;6186390;23;20202;-65
2021/08/13 04:54:34;;;;;;;11.83;8.43;;;21.50;99.90;;;;;;6160498;23;20167;-65
2021/08/13 04:57:00;;;;;;;10.37;9.20;;;21.50;99.90;;;;;;6159530;23;20209;-62
2021/08/13 04:59:26;;;;;;;10.43;8.40;;;21.60;99.90;;;;;;6187107;23;20383;-66
2021/08/13 05:01:52;;;;;;;9.03;8.20;;;21.60;99.90;;;;;;6186495;23;20185;-62
2021/08/13 05:04:17;;;;;;;9.30;8.20;;;21.60;99.90;;;;;;6186250;23;20381;-67
2021/08/13 05:06:44;;;;;;;9.03;8.10;;;21.70;99.90;;;;;;6184996;23;20260;-62
2021/08/13 05:09:10;;;;;;;10.53;8.63;;;21.70;99.90;;;;;;6185699;23;20161;-62
2021/08/13 05:11:36;;;;;;;9.00;8.10;;;21.70;99.90;;;;;;6185368;23;20447;-63
2021/08/13 05:14:03;;;;;;;11.53;7.83;;;21.70;99.90;;;;;;6186766;23;20699;-65
2021/08/13 05:16:29;;;;;;;10.83;8.37;;;21.80;99.90;;;;;;6159612;23;20408;-67
2021/08/13 05:18:55;;;;;;;10.30;7.67;;;21.80;99.90;;;;;;6186708;23;20384;-62
2021/08/13 05:21:21;;;;;;;8.30;7.53;;;21.90;99.90;;;;;;6186297;23;20903;-62
2021/08/13 05:23:47;;;;;;;9.40;8.50;;;21.90;99.90;;;;;;6186713;23;20147;-65
2021/08/13 05:26:12;;;;;;;8.70;7.73;;;22.00;99.90;;;;;;6159216;23;20420;-65
2021/08/13 05:28:38;;;;;;;8.93;8.03;;;22.00;99.90;;;;;;6185664;23;20585;-64
2021/08/13 05:31:03;;;;;;;13.27;9.20;;;22.10;99.90;;;;;;6185202;23;20154;-65
2021/08/13 05:33:29;;;;;;;12.40;8.90;;;22.10;99.90;;;;;;6159545;23;20185;-65
2021/08/13 05:35:55;;;;;;;12.03;8.80;;;22.20;99.90;;;;;;6185395;23;20492;-62
2021/08/13 05:38:20;;;;;;;10.80;9.70;;;22.30;99.90;;;;;;6185636;23;20198;-65
2021/08/13 05:40:46;;;;;;;9.87;8.90;;;22.30;99.90;;;;;;6185016;23;20150;-63
2021/08/13 05:43:11;;;;;;;9.63;8.63;;;22.40;99.90;;;;;;6185467;23;20217;-62
2021/08/13 05:45:37;;;;;;;8.70;7.80;;;22.50;99.90;;;;;;6157522;23;20209;-66
2021/08/13 05:48:03;;;;;;;8.70;7.80;;;22.50;99.90;;;;;;6182834;23;20181;-65
2021/08/13 05:50:29;;;;;;;10.30;8.43;;;22.60;99.90;;;;;;6182510;23;20658;-63
2021/08/13 05:52:55;;;;;;;10.10;8.63;;;22.70;99.90;;;;;;6185050;23;20574;-62
2021/08/13 05:55:21;;;;;;;8.27;7.47;;;22.70;99.90;;;;;;6156486;23;20390;-66
2021/08/13 05:57:47;;;;;;;10.80;9.00;;;22.80;99.90;;;;;;6184483;23;20400;-62
2021/08/13 06:00:13;;;;;;;10.93;8.50;;;22.80;99.90;;;;;;6183630;23;20157;-65
2021/08/13 06:02:52;;;;;;;10.60;8.77;;;22.90;99.90;;;;;;6184746;23;20258;-62
2021/08/13 06:05:18;;;;;;;9.07;8.20;;;23.00;99.90;;;;;;6180253;23;20419;-66
2021/08/13 06:07:44;;;;;;;11.50;8.23;;;23.10;99.90;;;;;;6182353;23;20408;-65
2021/08/13 06:10:10;;;;;;;9.57;8.57;;;23.10;99.90;;;;;;6156669;23;20285;-63
2021/08/13 06:12:35;;;;;;;9.57;7.60;;;23.20;99.90;;;;;;6180967;23;20198;-65
2021/08/13 06:15:01;;;;;;;8.73;7.77;;;23.30;99.90;;;;;;6155405;23;20411;-66
2021/08/13 06:17:26;;;;;;;8.93;7.90;;;23.40;99.90;;;;;;6182122;23;20221;-63
2021/08/13 06:19:52;;;;;;;9.13;8.20;;;23.50;99.90;;;;;;6183903;23;20539;-63
2021/08/13 06:22:18;;;;;;;8.73;7.93;;;23.50;99.90;;;;;;6157086;23;20174;-66
2021/08/13 06:24:43;;;;;;;11.73;7.50;;;23.60;99.90;;;;;;6157043;23;20197;-65
2021/08/13 06:27:09;;;;;;;7.80;7.10;;;23.70;99.90;;;;;;6183726;23;20641;-67
2021/08/13 06:29:37;;;;;;;8.70;7.83;;;23.80;99.90;;;;;;6184201;23;20176;-63
2021/08/13 06:32:03;;;;;;;7.20;6.50;;;23.90;99.90;;;;;;6182113;23;20440;-66
2021/08/13 06:34:28;;;;;;;8.23;7.20;;;24.00;99.90;;;;;;6181121;23;20396;-67
2021/08/13 06:36:54;;;;;;;8.17;7.30;;;24.10;99.90;;;;;;6185082;23;20429;-63
2021/08/13 06:39:20;;;;;;;7.90;6.10;;;24.10;99.90;;;;;;6157586;23;20194;-63
2021/08/13 06:41:46;;;;;;;8.50;6.40;;;24.20;99.90;;;;;;6184535;23;20191;-66
2021/08/13 06:44:11;;;;;;;6.73;5.73;;;24.20;99.90;;;;;;6186955;23;20378;-66
2021/08/13 06:46:37;;;;;;;6.10;5.50;;;24.30;99.90;;;;;;6158246;23;20183;-66
2021/08/13 06:49:03;;;;;;;7.00;5.53;;;24.40;99.90;;;;;;6186229;23;20184;-66
2021/08/13 06:51:28;;;;;;;7.40;5.70;;;24.50;99.90;;;;;;6184658;23;20231;-65
2021/08/13 06:53:54;;;;;;;6.00;5.50;;;24.60;99.90;;;;;;6158269;23;20615;-66
2021/08/13 06:56:19;;;;;;;7.07;5.73;;;24.70;99.90;;;;;;6157070;23;20160;-63
2021/08/13 06:58:45;;;;;;;8.77;5.70;;;24.80;99.90;;;;;;6184815;23;20164;-62
2021/08/13 07:01:11;;;;;;;10.80;6.10;;;24.90;99.90;;;;;;6185561;23;20167;-66
2021/08/13 07:03:36;;;;;;;5.77;5.20;;;25.00;99.90;;;;;;6158786;23;20166;-65
2021/08/13 07:06:02;;;;;;;8.40;5.10;;;25.00;99.90;;;;;;6187381;23;20606;-66
2021/08/13 07:08:27;;;;;;;6.43;5.83;;;25.20;99.90;;;;;;6186605;23;20176;-62
2021/08/13 07:10:53;;;;;;;6.37;5.73;;;25.20;99.90;;;;;;6157071;23;20161;-63
2021/08/13 07:13:19;;;;;;;6.27;5.17;;;25.30;99.90;;;;;;6184686;23;20251;-62
2021/08/13 07:15:44;;;;;;;5.67;5.27;;;25.40;99.90;;;;;;6183959;23;20446;-64
2021/08/13 07:18:10;;;;;;;6.70;6.10;;;25.50;99.90;;;;;;6157931;23;20188;-65
2021/08/13 07:20:35;;;;;;;5.73;5.23;;;25.60;99.90;;;;;;6158349;23;20198;-65
2021/08/13 07:23:01;;;;;;;11.13;6.00;;;25.70;99.90;;;;;;6181625;23;20224;-64
2021/08/13 07:25:27;;;;;;;6.03;5.43;;;25.80;99.90;;;;;;6181132;23;20158;-63
2021/08/13 07:27:54;;;;;;;6.10;5.50;;;25.90;99.90;;;;;;6182368;23;20201;-62
2021/08/13 07:30:20;;;;;;;7.10;6.40;;;26.00;99.90;;;;;;6184241;23;20521;-62
2021/08/13 07:32:46;;;;;;;5.20;4.80;;;26.10;99.90;;;;;;6180727;23;20535;-62
2021/08/13 07:35:13;;;;;;;6.10;5.17;;;26.20;99.90;;;;;;6183872;23;20512;-66
2021/08/13 07:37:39;;;;;;;10.23;5.17;;;26.30;99.90;;;;;;6184488;23;20208;-62
2021/08/13 07:40:06;;;;;;;6.00;5.00;;;26.40;99.90;;;;;;6185180;23;20387;-65
2021/08/13 07:42:33;;;;;;;6.63;5.50;;;26.50;99.90;;;;;;6186180;23;20399;-62
2021/08/13 07:44:59;;;;;;;5.50;4.93;;;26.50;99.90;;;;;;6184305;23;20376;-66
2021/08/13 07:47:25;;;;;;;7.47;5.30;;;26.60;99.90;;;;;;6184343;23;20396;-65
2021/08/13 07:49:51;;;;;;;6.57;5.03;;;26.80;99.90;;;;;;6158202;23;20392;-66
2021/08/13 07:52:16;;;;;;;5.20;4.70;;;26.80;99.90;;;;;;6185284;23;20190;-62
2021/08/13 07:54:42;;;;;;;4.90;4.50;;;27.00;99.90;;;;;;6159680;23;20618;-65
2021/08/13 07:57:07;;;;;;;5.97;4.30;;;27.00;99.80;;;;;;6159833;23;20183;-62
2021/08/13 07:59:34;;;;;;;4.83;4.43;;;27.10;99.90;;;;;;6187171;23;20158;-65
2021/08/13 08:02:00;;;;;;;4.67;4.27;;;27.20;99.40;;;;;;6159108;23;20261;-62
2021/08/13 08:04:26;;;;;;;6.10;5.40;;;27.30;99.60;;;;;;6157676;23;20458;-62
2021/08/13 08:06:56;;;;;;;4.80;4.40;;;27.40;99.40;;;;;;6182767;23;20180;-62
2021/08/13 08:09:23;;;;;;;4.50;4.13;;;27.50;97.80;;;;;;6185207;23;20485;-65
2021/08/13 08:11:48;;;;;;;4.70;4.30;;;27.50;97.30;;;;;;6183150;23;20444;-62
2021/08/13 08:14:14;;;;;;;6.20;5.40;;;27.60;98.00;;;;;;6182232;23;20384;-62
2021/08/13 08:16:39;;;;;;;5.40;4.90;;;27.70;97.70;;;;;;6181385;23;20206;-64
2021/08/13 08:19:05;;;;;;;4.90;4.50;;;27.70;97.60;;;;;;6183000;23;20158;-62
2021/08/13 08:21:31;;;;;;;4.30;3.90;;;27.80;97.30;;;;;;6182484;23;20277;-62
2021/08/13 08:23:56;;;;;;;4.70;4.30;;;27.90;96.50;;;;;;6182310;23;20420;-62
2021/08/13 08:26:22;;;;;;;4.70;4.10;;;28.00;96.80;;;;;;6155258;23;20545;-62
2021/08/13 08:28:48;;;;;;;5.63;5.00;;;28.00;96.70;;;;;;6154503;23;20166;-63
2021/08/13 08:31:13;;;;;;;5.10;4.17;;;28.10;97.00;;;;;;6182281;23;20155;-67
2021/08/13 08:33:39;;;;;;;5.33;4.83;;;28.20;96.40;;;;;;6180801;23;20164;-64
2021/08/13 08:36:06;;;;;;;4.60;4.20;;;28.30;96.70;;;;;;6180531;23;20176;-66
2021/08/13 08:38:32;;;;;;;6.23;4.50;;;28.50;97.20;;;;;;6153019;23;20463;-65
2021/08/13 08:41:05;;;;;;;4.97;4.57;;;28.60;95.90;;;;;;6177231;23;20373;-62
2021/08/13 08:43:31;;;;;;;4.43;4.03;;;28.60;96.10;;;;;;6182484;23;20351;-65
2021/08/13 08:45:59;;;;;;;4.90;4.50;;;28.70;95.50;;;;;;6182029;23;20382;-62
2021/08/13 08:48:34;;;;;;;4.53;3.73;;;28.70;93.90;;;;;;6156333;23;20446;-66
2021/08/13 08:51:00;;;;;;;4.50;4.10;;;28.80;94.00;;;;;;6184004;23;20845;-65
2021/08/13 08:53:27;;;;;;;4.50;4.10;;;28.80;93.20;;;;;;6181238;23;20541;-62
2021/08/13 08:55:54;;;;;;;4.30;4.00;;;28.90;93.40;;;;;;6180541;23;20371;-62
2021/08/13 08:58:20;;;;;;;3.63;3.20;;;28.90;94.00;;;;;;6180262;23;20722;-65
2021/08/13 09:00:47;;;;;;;4.10;3.80;;;29.00;93.30;;;;;;6180842;23;20848;-62
2021/08/13 09:03:14;;;;;;;3.80;3.50;;;29.10;93.70;;;;;;6180212;23;20410;-62
2021/08/13 09:05:39;;;;;;;4.50;3.67;;;29.10;92.70;;;;;;6179447;23;20851;-62
2021/08/13 09:08:05;;;;;;;3.97;3.63;;;29.20;92.70;;;;;;6178603;23;20430;-65
2021/08/13 09:10:31;;;;;;;4.13;3.70;;;29.30;93.60;;;;;;6152997;23;20153;-66
2021/08/13 09:13:05;;;;;;;4.53;3.90;;;29.50;93.70;;;;;;6153737;23;20466;-65
2021/08/13 09:15:37;;;;;;;5.10;4.00;;;29.60;93.00;;;;;;6155093;23;20177;-66
2021/08/13 09:18:14;;;;;;;4.13;3.73;;;29.80;93.20;;;;;;6151890;23;20415;-63
2021/08/13 09:20:43;;;;;;;4.33;3.93;;;30.00;92.60;;;;;;6180657;23;20380;-67
2021/08/13 09:23:10;;;;;;;3.83;3.53;;;30.10;92.20;;;;;;6180582;23;20398;-62
2021/08/13 09:25:36;;;;;;;4.43;4.03;;;30.20;93.00;;;;;;6179621;23;20372;-63
2021/08/13 09:28:01;;;;;;;5.07;4.13;;;30.30;91.90;;;;;;6180172;23;20958;-65
2021/08/13 09:30:28;;;;;;;4.67;3.90;;;30.30;91.50;;;;;;6183871;23;20214;-63
2021/08/13 09:32:57;;;;;;;6.13;4.90;;;30.30;91.40;;;;;;6154694;23;20209;-62
2021/08/13 09:35:31;;;;;;;5.13;4.63;;;30.30;91.30;;;;;;6180326;23;20369;-62
2021/08/13 09:37:57;;;;;;;4.97;4.43;;;30.30;91.40;;;;;;6180149;23;20429;-67
2021/08/13 09:40:23;;;;;;;5.60;4.83;;;30.30;91.40;;;;;;6155673;23;20970;-64
2021/08/13 09:42:49;;;;;;;4.33;3.93;;;30.30;90.80;;;;;;6154516;23;20573;-66
2021/08/13 09:45:14;;;;;;;4.60;4.10;;;30.30;91.00;;;;;;6180078;23;20151;-66
2021/08/13 09:47:46;;;;;;;4.10;3.70;;;30.30;91.10;;;;;;6181044;23;20456;-63
2021/08/13 09:50:15;;;;;;;4.73;4.33;;;30.40;90.90;;;;;;6183362;23;20167;-62
2021/08/13 09:52:42;;;;;;;4.63;4.23;;;30.30;91.60;;;;;;6180577;23;20437;-62
2021/08/13 09:55:16;;;;;;;6.33;4.20;;;30.40;91.00;;;;;;6181877;23;20380;-62
2021/08/13 09:57:48;;;;;;;4.93;4.10;;;30.40;91.90;;;;;;6183774;23;20390;-62
2021/08/13 10:00:16;;;;;;;7.40;4.80;;;30.50;91.10;;;;;;6158268;23;20393;-62
2021/08/13 10:02:44;;;;;;;4.70;4.30;;;30.50;90.10;;;;;;6183208;23;21144;-65
2021/08/13 10:05:17;;;;;;;4.73;4.33;;;30.60;90.30;;;;;;6184517;23;20379;-67
2021/08/13 10:07:47;;;;;;;4.87;4.20;;;30.60;90.10;;;;;;6184928;23;20408;-66
2021/08/13 10:10:13;;;;;;;4.60;4.20;;;30.60;90.60;;;;;;6159538;23;20520;-62
2021/08/13 10:12:46;;;;;;;4.60;3.87;;;30.60;90.30;;;;;;6182674;23;20447;-65
2021/08/13 10:15:28;;;;;;;5.23;4.17;;;30.70;90.80;;;;;;6184521;23;20449;-62
2021/08/13 10:17:56;;;;;;;5.43;4.30;;;30.70;90.00;;;;;;6158953;23;21019;-65
2021/08/13 10:20:30;;;;;;;6.30;4.50;;;30.80;90.60;;;;;;6184253;23;20411;-68
2021/08/13 10:22:56;;;;;;;4.80;4.07;;;30.80;90.10;;;;;;6184619;23;20412;-67
2021/08/13 10:25:23;;;;;;;4.00;3.70;;;30.90;91.00;;;;;;6185136;23;20680;-67
2021/08/13 10:27:49;;;;;;;3.73;3.43;;;31.00;91.00;;;;;;6185958;23;20180;-67
2021/08/13 10:30:18;;;;;;;4.60;4.20;;;31.00;90.80;;;;;;6184557;23;20369;-67
2021/08/13 10:32:47;;;;;;;4.37;3.97;;;31.10;91.50;;;;;;6185638;23;20481;-67
2021/08/13 10:35:14;;;;;;;5.10;4.60;;;31.10;91.00;;;;;;6158740;23;20738;-67
2021/08/13 10:37:41;;;;;;;4.00;3.60;;;31.20;90.90;;;;;;6158395;23;20463;-67
2021/08/13 10:40:09;;;;;;;4.13;3.73;;;31.20;90.70;;;;;;6185911;23;20384;-68
2021/08/13 10:42:38;;;;;;;4.80;4.40;;;31.30;90.10;;;;;;6184816;23;20458;-64
2021/08/13 10:45:07;;;;;;;5.53;4.53;;;31.30;89.40;;;;;;6184225;23;20477;-69
2021/08/13 10:47:49;;;;;;;5.10;4.63;;;31.40;90.10;;;;;;6186722;23;20391;-68
2021/08/13 10:50:17;;;;;;;4.40;3.97;;;31.40;90.40;;;;;;6159928;23;20783;-68
2021/08/13 10:52:43;;;;;;;5.20;4.27;;;31.40;90.00;;;;;;6186439;23;20445;-69
2021/08/13 10:55:43;;;;;;;4.47;4.00;;;31.50;89.50;;;;;;6185757;23;20398;-69
2021/08/13 10:58:10;;;;;;;4.47;4.00;;;31.50;89.70;;;;;;6185545;23;20398;-68
2021/08/13 11:00:58;;;;;;;7.07;4.30;;;31.50;89.60;;;;;;6186536;23;20727;-64
2021/08/13 11:03:23;;;;;;;5.17;4.30;;;31.50;89.30;;;;;;6181741;23;20486;-63
2021/08/13 11:05:59;;;;;;;4.50;3.97;;;31.50;88.20;;;;;;6155071;23;20466;-69
2021/08/13 11:08:40;;;;;;;4.30;3.90;;;31.50;88.60;;;;;;6182615;23;20555;-63
2021/08/13 11:11:07;;;;;;;4.30;3.90;;;31.50;88.00;;;;;;6185382;23;20412;-63
2021/08/13 11:13:41;;;;;;;6.20;4.83;;;31.50;88.40;;;;;;6183401;23;20482;-67
2021/08/13 11:16:25;;;;;;;4.80;4.27;;;31.50;88.10;;;;;;6156843;23;20900;-68
2021/08/13 11:19:11;;;;;;;4.47;4.07;;;31.50;89.30;;;;;;6156944;23;20403;-64
2021/08/13 11:21:40;;;;;;;6.17;4.47;;;31.50;89.60;;;;;;6158117;23;20407;-64
2021/08/13 11:24:12;;;;;;;5.90;4.50;;;31.60;90.40;;;;;;6186270;23;20386;-63
2021/08/13 11:27:01;;;;;;;6.40;4.57;;;31.60;88.50;;;;;;6183935;23;20710;-64
2021/08/13 11:29:30;;;;;;;7.07;5.10;;;31.60;89.10;;;;;;6183833;23;20407;-68
2021/08/13 11:32:21;;;;;;;5.40;4.50;;;31.70;88.20;;;;;;6156411;23;20435;-64
2021/08/13 11:34:55;;;;;;;4.60;4.20;;;31.70;89.10;;;;;;6182161;23;20395;-66
2021/08/13 11:37:38;;;;;;;4.20;3.80;;;31.70;89.90;;;;;;6183756;23;20488;-64
2021/08/13 11:40:30;;;;;;;10.57;9.00;;;31.70;90.00;;;;;;6182993;23;20386;-67
2021/08/13 11:43:06;;;;;;;6.70;5.47;;;31.70;89.60;;;;;;6184818;23;20431;-67
2021/08/13 11:45:43;;;;;;;4.60;4.20;;;31.80;88.60;;;;;;6159380;23;20424;-69
2021/08/13 11:48:12;;;;;;;5.07;4.47;;;31.80;87.70;;;;;;6185349;23;20411;-64
2021/08/13 11:50:38;;;;;;;4.53;3.90;;;31.80;87.30;;;;;;6158279;23;20482;-71
2021/08/13 11:53:05;;;;;;;5.20;4.37;;;31.90;88.30;;;;;;6158373;23;20486;-69
2021/08/13 11:55:35;;;;;;;6.33;4.50;;;31.90;87.40;;;;;;6183667;23;20397;-67
2021/08/13 11:58:05;;;;;;;5.97;4.60;;;31.90;87.70;;;;;;6184814;23;20494;-65
2021/08/13 12:00:40;;;;;;;4.60;4.20;;;31.90;88.40;;;;;;6157883;23;20387;-64
2021/08/13 12:03:10;;;;;;;4.90;4.50;;;32.00;88.40;;;;;;6184515;23;20416;-65
2021/08/13 12:05:39;;;;;;;7.83;4.40;;;32.00;89.20;;;;;;6181560;23;20886;-64
2021/08/13 12:08:12;;;;;;;6.17;5.00;;;32.00;88.90;;;;;;6181307;23;20407;-66
2021/08/13 12:10:38;;;;;;;4.80;4.30;;;32.00;89.60;;;;;;6183114;23;20478;-66
2021/08/13 12:13:08;;;;;;;7.17;6.47;;;32.00;90.00;;;;;;6180477;23;20456;-65
2021/08/13 12:15:40;;;;;;;4.90;4.50;;;32.00;89.30;;;;;;6181473;23;20161;-66
2021/08/13 12:18:06;;;;;;;5.60;4.83;;;32.10;88.20;;;;;;6152679;23;20428;-66
2021/08/13 12:20:34;;;;;;;4.13;3.73;;;32.10;88.50;;;;;;6180022;23;20376;-64
2021/08/13 12:23:08;;;;;;;4.97;4.43;;;32.10;88.10;;;;;;6176551;23;20787;-66
2021/08/13 12:25:40;;;;;;;4.60;4.20;;;32.10;87.20;;;;;;6178605;23;20369;-64
2021/08/13 12:28:07;;;;;;;5.93;4.80;;;32.10;88.20;;;;;;6179077;23;20806;-65
2021/08/13 12:30:34;;;;;;;4.97;4.47;;;32.20;89.10;;;;;;6181028;23;20376;-66
2021/08/13 12:33:00;;;;;;;5.10;4.63;;;32.20;88.90;;;;;;6180259;23;20958;-64
2021/08/13 12:35:39;;;;;;;5.87;4.50;;;32.30;88.70;;;;;;6182700;23;20388;-65
2021/08/13 12:38:07;;;;;;;4.93;4.43;;;32.30;88.70;;;;;;6177955;23;20435;-66
2021/08/13 12:40:50;;;;;;;4.63;4.23;;;32.30;87.60;;;;;;6153986;23;20397;-65
2021/08/13 12:43:19;;;;;;;5.23;4.73;;;32.30;88.70;;;;;;6178875;23;20404;-66
2021/08/13 12:45:51;;;;;;;4.40;4.00;;;32.30;88.00;;;;;;6152849;23;20854;-65
2021/08/13 12:48:19;;;;;;;5.10;4.50;;;32.40;86.90;;;;;;6179653;23;20718;-65
2021/08/13 12:50:45;;;;;;;5.00;4.50;;;32.40;87.10;;;;;;6181277;23;20365;-65